Terminal Aerodrome Forecast
Issued by NWS Grand Junction, CO

Home | Current Version | Previous Version | Text Only | Print | Product List | Glossary On
Versions: 1 2 3 4 5 6 7 8 9 10 11 12 13 14 15 16 17 18 19 20 21 22 23 24 25 26 27 28 29 30 31 32 33 34 35 36 37
000
FTUS45 KGJT 031139
TAFGJT
TAF
KGJT 031139Z 0312/0412 05004KT P6SM SCT050 BKN070
      TEMPO 0312/0314 BKN050
     FM031900 28010G15KT P6SM VCSH SCT040 BKN070
      TEMPO 0321/0401 VRB10G20KT 5SM -SHRA SCT020 BKN040
     FM040100 33008KT P6SM VCSH SCT040 BKN070
     FM040600 35007KT P6SM VCSH SCT040 BKN070=

USA.gov is the U.S. government's official web portal to all federal, state and local government web resources and services.